Phoenix, Arizona
Traffic Map
Current Weather Conditions
Phoenix, Arizona
Broken Clouds
Broken Clouds
63°
Feels Like: 63°
Wind Chill: 63° Ceiling: 25000
Heat Index: 63° Visibility: 10mi
Dew Point: 45° Wind: 0mph
Humidity: 52% Direction: ° ()
Pressure: 30.01in Gusts: 0mph
Raw Report DataKPHX 071851Z 00000KT 10SM SCT043 BKN250 17/07 A3001 RMK AO2 SLP155 T01720072
Traffic Incident Summary
Active as of:
Severity:
Category:
InformationThere was an issue retrieving the traffic information for this location. Please try a different location or try again shortly.
Advertisements
Track Severe Weather on mobile